Time;durP1;ratioP1;P1;durP2;ratioP2;P2;SDS_P1;SDS_P2;PMS_P1;PMS_P2;Temp;Humidity;BMP_temperature;BMP_pressure;BME280_temperature;BME280_humidity;BME280_pressure;Samples;Min_cycle;Max_cycle;Signal;HPM_P1;HPM_P2
2022/03/16 00:00:18;;;;;;;79.05;39.15;;;;;;;;;;5023488;28;20029;-74
2022/03/16 00:02:46;;;;;;;75.45;39.10;;;;;;;;;;5008538;28;20472;-74
2022/03/16 00:05:13;;;;;;;72.65;37.95;;;;;;;;;;5024384;28;20041;-75
2022/03/16 00:07:39;;;;;;;74.75;38.10;;;;;;;;;;5017688;28;20125;-74
2022/03/16 00:10:07;;;;;;;68.80;37.30;;;;;;;;;;5023395;28;20508;-75
2022/03/16 00:12:35;;;;;;;75.55;38.10;;;;;;;;;;5023419;28;20500;-75
2022/03/16 00:15:00;;;;;;;64.03;34.97;;;;;;;;;;5023984;28;20531;-75
2022/03/16 00:17:26;;;;;;;64.55;36.58;;;;;;;;;;5007995;28;20073;-75
2022/03/16 00:19:52;;;;;;;65.45;35.53;;;;;;;;;;5022275;28;20108;-75
2022/03/16 00:22:17;;;;;;;60.08;34.70;;;;;;;;;;5024726;28;20028;-75
2022/03/16 00:24:44;;;;;;;66.55;35.30;;;;;;;;;;5025710;28;20480;-74
2022/03/16 00:27:09;;;;;;;65.38;36.03;;;;;;;;;;5021869;28;20038;-75
2022/03/16 00:29:35;;;;;;;69.00;36.17;;;;;;;;;;5022289;28;20041;-74
2022/03/16 00:32:01;;;;;;;76.40;38.28;;;;;;;;;;5023936;28;20041;-74
2022/03/16 00:34:27;;;;;;;79.75;40.65;;;;;;;;;;5008950;28;20092;-75
2022/03/16 00:36:52;;;;;;;69.50;38.05;;;;;;;;;;5024046;28;20381;-74
2022/03/16 00:39:18;;;;;;;64.80;36.50;;;;;;;;;;5024636;28;20033;-75
2022/03/16 00:41:44;;;;;;;64.07;35.22;;;;;;;;;;5023583;28;20061;-75
2022/03/16 00:44:09;;;;;;;64.60;36.88;;;;;;;;;;5006553;28;20060;-74
2022/03/16 00:46:36;;;;;;;57.42;35.22;;;;;;;;;;5022915;28;20030;-74
2022/03/16 00:49:04;;;;;;;68.00;37.25;;;;;;;;;;5006974;28;20164;-75
2022/03/16 00:51:29;;;;;;;63.05;37.28;;;;;;;;;;5021461;28;20033;-74
2022/03/16 00:53:55;;;;;;;70.93;38.90;;;;;;;;;;5021333;28;20034;-75
2022/03/16 00:56:21;;;;;;;70.32;37.72;;;;;;;;;;5024205;28;20025;-75
2022/03/16 00:58:47;;;;;;;63.55;37.10;;;;;;;;;;5008258;28;20058;-74
2022/03/16 01:01:13;;;;;;;63.13;37.63;;;;;;;;;;5006656;28;20045;-75
2022/03/16 01:03:42;;;;;;;65.85;36.83;;;;;;;;;;4989995;28;20242;-74
2022/03/16 01:06:15;;;;;;;63.88;38.50;;;;;;;;;;5005553;28;20041;-76
2022/03/16 01:08:44;;;;;;;63.65;36.33;;;;;;;;;;5024468;28;20065;-75
2022/03/16 01:11:11;;;;;;;68.20;38.30;;;;;;;;;;5003519;28;20477;-76
2022/03/16 01:13:37;;;;;;;71.35;37.10;;;;;;;;;;4993107;28;20496;-75
2022/03/16 01:16:04;;;;;;;64.55;37.65;;;;;;;;;;5003740;28;20099;-75
2022/03/16 01:18:29;;;;;;;65.05;36.67;;;;;;;;;;5004739;28;20041;-74
2022/03/16 01:20:55;;;;;;;69.78;38.35;;;;;;;;;;4990719;28;20048;-75
2022/03/16 01:23:21;;;;;;;67.43;38.65;;;;;;;;;;5027950;28;20182;-75
2022/03/16 01:25:46;;;;;;;66.57;37.72;;;;;;;;;;5008645;28;20099;-75
2022/03/16 01:28:12;;;;;;;72.95;39.67;;;;;;;;;;5023369;28;20061;-74
2022/03/16 01:30:37;;;;;;;71.20;37.97;;;;;;;;;;4995192;28;20045;-75
2022/03/16 01:33:03;;;;;;;68.63;36.60;;;;;;;;;;5013883;28;20049;-75
2022/03/16 01:35:29;;;;;;;72.05;37.00;;;;;;;;;;5023417;28;20424;-75
2022/03/16 01:37:54;;;;;;;81.38;40.95;;;;;;;;;;5022392;28;20049;-75
2022/03/16 01:40:20;;;;;;;79.05;39.85;;;;;;;;;;5024154;28;20056;-74
2022/03/16 01:42:46;;;;;;;77.03;40.10;;;;;;;;;;5024406;28;20052;-74
2022/03/16 01:45:12;;;;;;;77.90;39.83;;;;;;;;;;5025580;28;20029;-75
2022/03/16 01:47:37;;;;;;;72.97;39.13;;;;;;;;;;5024629;28;20096;-75
2022/03/16 01:50:04;;;;;;;81.55;39.63;;;;;;;;;;5026418;28;20443;-75
2022/03/16 01:52:31;;;;;;;84.80;41.35;;;;;;;;;;5021026;28;20037;-74
2022/03/16 01:54:58;;;;;;;80.28;41.10;;;;;;;;;;4995321;28;20067;-75
2022/03/16 01:57:24;;;;;;;83.55;39.85;;;;;;;;;;5007078;28;20037;-75
2022/03/16 01:59:51;;;;;;;90.97;42.80;;;;;;;;;;5008878;28;20038;-75
2022/03/16 02:02:16;;;;;;;85.03;39.58;;;;;;;;;;5010977;28;20055;-75
2022/03/16 02:04:43;;;;;;;92.75;42.67;;;;;;;;;;5007376;28;20714;-75
2022/03/16 02:07:08;;;;;;;87.65;41.55;;;;;;;;;;5026422;28;20048;-75
2022/03/16 02:09:35;;;;;;;99.05;42.05;;;;;;;;;;5022074;28;20037;-75
2022/03/16 02:12:01;;;;;;;89.90;40.92;;;;;;;;;;5026875;28;20038;-74
2022/03/16 02:14:27;;;;;;;92.00;43.03;;;;;;;;;;5022545;28;20034;-74
2022/03/16 02:16:56;;;;;;;112.45;43.90;;;;;;;;;;5013537;28;20044;-74
2022/03/16 02:19:22;;;;;;;108.88;42.47;;;;;;;;;;5024306;28;20025;-75
2022/03/16 02:21:59;;;;;;;98.32;42.85;;;;;;;;;;5023547;28;20045;-75
2022/03/16 02:24:26;;;;;;;91.13;41.83;;;;;;;;;;5025394;28;20116;-75
2022/03/16 02:26:52;;;;;;;81.25;40.15;;;;;;;;;;5018528;28;20037;-74
2022/03/16 02:29:18;;;;;;;94.70;41.40;;;;;;;;;;5025108;28;20040;-75
2022/03/16 02:31:44;;;;;;;83.88;42.47;;;;;;;;;;5007820;28;20041;-74
2022/03/16 02:34:09;;;;;;;86.50;41.80;;;;;;;;;;5023953;28;20034;-75
2022/03/16 02:36:35;;;;;;;89.35;43.55;;;;;;;;;;5005837;28;20393;-75
2022/03/16 02:39:01;;;;;;;88.28;40.85;;;;;;;;;;5026179;28;20475;-75
2022/03/16 02:41:26;;;;;;;91.30;40.20;;;;;;;;;;5025715;28;20037;-75
2022/03/16 02:43:52;;;;;;;91.70;41.60;;;;;;;;;;5007860;28;20041;-75
2022/03/16 02:46:17;;;;;;;91.72;42.13;;;;;;;;;;5019239;28;20049;-75
2022/03/16 02:48:44;;;;;;;89.10;40.45;;;;;;;;;;5025192;28;20124;-74
2022/03/16 02:51:10;;;;;;;79.90;40.55;;;;;;;;;;5009967;28;20392;-75
2022/03/16 02:53:35;;;;;;;88.80;41.33;;;;;;;;;;5006494;28;20034;-75
2022/03/16 02:56:01;;;;;;;91.70;43.42;;;;;;;;;;5005870;28;20084;-75
2022/03/16 02:58:26;;;;;;;92.32;43.40;;;;;;;;;;5023281;28;20555;-74
2022/03/16 03:00:52;;;;;;;89.45;42.78;;;;;;;;;;5025026;28;20525;-74
2022/03/16 03:03:18;;;;;;;102.25;43.78;;;;;;;;;;5019799;28;20033;-75
2022/03/16 03:05:44;;;;;;;92.90;42.92;;;;;;;;;;5019911;28;20492;-74
2022/03/16 03:08:10;;;;;;;103.45;44.83;;;;;;;;;;5024253;28;20527;-75
2022/03/16 03:10:36;;;;;;;113.65;46.65;;;;;;;;;;5021685;28;20025;-75
2022/03/16 03:13:02;;;;;;;108.63;44.15;;;;;;;;;;5016610;28;20030;-74
2022/03/16 03:15:28;;;;;;;116.50;47.22;;;;;;;;;;5021852;28;20488;-74
2022/03/16 03:17:53;;;;;;;114.35;46.85;;;;;;;;;;5026177;28;20042;-74
2022/03/16 03:20:19;;;;;;;122.28;47.35;;;;;;;;;;5025098;28;20432;-74
2022/03/16 03:22:45;;;;;;;124.38;47.78;;;;;;;;;;5023931;28;20113;-74
2022/03/16 03:25:14;;;;;;;117.63;45.78;;;;;;;;;;5009883;28;20130;-75
2022/03/16 03:27:40;;;;;;;105.57;45.15;;;;;;;;;;5025816;28;20152;-75
2022/03/16 03:30:07;;;;;;;105.03;44.30;;;;;;;;;;5024382;28;20045;-75
2022/03/16 03:32:32;;;;;;;121.65;46.60;;;;;;;;;;5003791;28;20041;-74
2022/03/16 03:34:58;;;;;;;120.82;46.47;;;;;;;;;;5013395;28;20111;-74
2022/03/16 03:37:30;;;;;;;130.75;49.13;;;;;;;;;;5003418;28;20044;-75
2022/03/16 03:39:57;;;;;;;131.13;48.10;;;;;;;;;;5024053;28;20033;-75
2022/03/16 03:42:23;;;;;;;124.10;45.42;;;;;;;;;;5013002;28;20033;-74
2022/03/16 03:44:49;;;;;;;130.25;49.20;;;;;;;;;;5019649;28;20166;-75
2022/03/16 03:47:15;;;;;;;133.20;46.75;;;;;;;;;;5018988;28;20124;-74
2022/03/16 03:49:42;;;;;;;122.70;46.95;;;;;;;;;;5025916;28;20041;-74
2022/03/16 03:52:08;;;;;;;118.82;46.60;;;;;;;;;;5015375;28;20037;-74
2022/03/16 03:54:34;;;;;;;130.55;49.55;;;;;;;;;;5023147;28;20026;-75
2022/03/16 03:57:00;;;;;;;130.50;48.80;;;;;;;;;;5001052;28;20033;-74
2022/03/16 03:59:26;;;;;;;142.80;49.60;;;;;;;;;;4992236;28;20056;-74
2022/03/16 04:01:52;;;;;;;147.32;51.03;;;;;;;;;;5011697;28;20119;-74
2022/03/16 04:04:17;;;;;;;148.65;48.70;;;;;;;;;;5027372;28;20112;-74
2022/03/16 04:06:43;;;;;;;151.57;51.78;;;;;;;;;;5026568;28;20060;-74
2022/03/16 04:09:09;;;;;;;145.68;53.15;;;;;;;;;;5023210;28;20037;-75
2022/03/16 04:11:35;;;;;;;150.93;53.17;;;;;;;;;;5024823;28;20043;-75
2022/03/16 04:14:01;;;;;;;147.68;51.97;;;;;;;;;;5022777;28;20480;-74
2022/03/16 04:16:27;;;;;;;133.57;52.13;;;;;;;;;;5015832;28;20069;-75
2022/03/16 04:18:52;;;;;;;129.50;48.70;;;;;;;;;;5015842;28;20067;-75
2022/03/16 04:21:18;;;;;;;115.97;45.42;;;;;;;;;;5030240;28;20168;-74
2022/03/16 04:23:44;;;;;;;117.15;45.85;;;;;;;;;;5014176;28;20495;-75
2022/03/16 04:26:09;;;;;;;112.55;46.13;;;;;;;;;;5018459;28;20496;-75
2022/03/16 04:28:35;;;;;;;116.30;45.33;;;;;;;;;;5007484;28;20029;-74
2022/03/16 04:31:01;;;;;;;104.03;42.88;;;;;;;;;;5004054;28;20064;-74
2022/03/16 04:33:27;;;;;;;120.20;46.95;;;;;;;;;;5002281;28;20405;-74
2022/03/16 04:35:53;;;;;;;119.22;47.15;;;;;;;;;;5017595;28;20041;-74
2022/03/16 04:38:19;;;;;;;100.13;43.80;;;;;;;;;;5012915;28;20041;-74
2022/03/16 04:40:46;;;;;;;105.85;44.05;;;;;;;;;;4971381;28;20052;-74
2022/03/16 04:43:12;;;;;;;117.80;47.63;;;;;;;;;;5023666;28;20037;-74
2022/03/16 04:45:39;;;;;;;120.07;46.53;;;;;;;;;;5020362;28;20048;-74
2022/03/16 04:48:09;;;;;;;129.27;47.47;;;;;;;;;;5022956;28;20044;-74
2022/03/16 04:50:35;;;;;;;117.68;46.70;;;;;;;;;;5021825;28;20071;-74
2022/03/16 04:53:02;;;;;;;130.02;48.65;;;;;;;;;;4994678;28;20045;-74
2022/03/16 04:55:28;;;;;;;129.80;47.85;;;;;;;;;;5019996;28;20049;-74
2022/03/16 04:57:53;;;;;;;139.82;47.75;;;;;;;;;;5020866;28;20030;-74
2022/03/16 05:00:19;;;;;;;136.93;49.95;;;;;;;;;;5005150;28;20485;-74
2022/03/16 05:02:45;;;;;;;141.23;48.80;;;;;;;;;;5018830;28;20041;-74
2022/03/16 05:05:11;;;;;;;137.00;49.20;;;;;;;;;;5015244;28;20092;-74
2022/03/16 05:07:40;;;;;;;125.20;47.00;;;;;;;;;;5025196;28;20489;-74
2022/03/16 05:10:06;;;;;;;122.80;47.03;;;;;;;;;;5016384;28;20448;-74
2022/03/16 05:12:43;;;;;;;115.50;44.42;;;;;;;;;;5006692;28;20049;-74
2022/03/16 05:15:17;;;;;;;117.18;46.10;;;;;;;;;;4990083;28;20029;-74
2022/03/16 05:17:43;;;;;;;108.72;44.53;;;;;;;;;;5024992;28;20064;-74
2022/03/16 05:20:09;;;;;;;110.43;44.70;;;;;;;;;;5010014;28;20070;-74
2022/03/16 05:22:45;;;;;;;110.22;43.22;;;;;;;;;;5017290;28;20117;-74
2022/03/16 05:25:12;;;;;;;111.55;45.00;;;;;;;;;;5013697;28;20034;-72
2022/03/16 05:27:38;;;;;;;107.03;45.55;;;;;;;;;;5021499;28;20401;-72
2022/03/16 05:30:06;;;;;;;105.15;44.10;;;;;;;;;;5023626;28;20112;-72
2022/03/16 05:32:32;;;;;;;107.80;42.78;;;;;;;;;;5018218;28;20045;-72
2022/03/16 05:34:58;;;;;;;104.63;41.45;;;;;;;;;;5015735;28;20029;-72
2022/03/16 05:37:23;;;;;;;95.95;41.25;;;;;;;;;;5029381;28;20079;-72
2022/03/16 05:39:49;;;;;;;96.55;42.50;;;;;;;;;;5019175;28;20110;-71
2022/03/16 05:42:15;;;;;;;88.50;41.42;;;;;;;;;;5015316;28;20044;-72
2022/03/16 05:44:40;;;;;;;93.55;41.75;;;;;;;;;;5017626;28;20029;-72
2022/03/16 05:47:06;;;;;;;95.20;41.40;;;;;;;;;;5019447;28;20034;-72
2022/03/16 05:49:31;;;;;;;98.45;42.47;;;;;;;;;;5021171;28;20034;-73
2022/03/16 05:51:57;;;;;;;86.85;41.95;;;;;;;;;;5024988;28;20115;-72
2022/03/16 05:54:23;;;;;;;86.40;40.25;;;;;;;;;;5020584;28;20108;-72
2022/03/16 05:56:48;;;;;;;83.97;39.80;;;;;;;;;;5025779;28;20065;-72
2022/03/16 05:59:14;;;;;;;92.60;43.03;;;;;;;;;;5015204;28;20107;-72
2022/03/16 06:01:39;;;;;;;81.70;39.10;;;;;;;;;;5038825;28;20026;-73
2022/03/16 06:04:05;;;;;;;83.15;39.60;;;;;;;;;;5020657;28;20029;-72
2022/03/16 06:06:31;;;;;;;88.65;41.28;;;;;;;;;;5017036;28;20049;-72
2022/03/16 06:08:57;;;;;;;95.85;42.38;;;;;;;;;;4997413;28;20041;-72
2022/03/16 06:11:23;;;;;;;88.68;40.92;;;;;;;;;;4991400;28;20135;-72
2022/03/16 06:13:50;;;;;;;93.65;40.78;;;;;;;;;;5019878;28;20065;-72
2022/03/16 06:16:15;;;;;;;96.55;41.85;;;;;;;;;;5014755;28;20041;-72
2022/03/16 06:18:41;;;;;;;90.80;42.17;;;;;;;;;;5002720;28;20049;-72
2022/03/16 06:21:07;;;;;;;80.18;39.75;;;;;;;;;;5024027;28;20488;-71
2022/03/16 06:23:32;;;;;;;92.63;39.75;;;;;;;;;;5024881;28;20040;-72
2022/03/16 06:25:58;;;;;;;91.10;39.92;;;;;;;;;;5012741;28;20048;-72
2022/03/16 06:28:23;;;;;;;92.93;40.03;;;;;;;;;;5025440;28;20103;-72
2022/03/16 06:30:49;;;;;;;83.82;39.70;;;;;;;;;;5035982;28;20103;-72
2022/03/16 06:33:15;;;;;;;88.25;40.45;;;;;;;;;;5009579;28;20103;-72
2022/03/16 06:35:40;;;;;;;83.97;38.88;;;;;;;;;;5019147;28;20108;-72
2022/03/16 06:38:06;;;;;;;81.85;37.80;;;;;;;;;;5022553;28;20069;-72
2022/03/16 06:40:31;;;;;;;89.90;39.88;;;;;;;;;;5017971;28;20037;-71
2022/03/16 06:42:58;;;;;;;85.03;39.25;;;;;;;;;;5006886;28;20374;-72
2022/03/16 06:45:28;;;;;;;81.50;37.22;;;;;;;;;;5025526;28;20485;-72
2022/03/16 06:47:55;;;;;;;75.97;35.90;;;;;;;;;;5033053;28;20494;-72
2022/03/16 06:50:20;;;;;;;69.45;35.83;;;;;;;;;;5016479;28;20101;-72
2022/03/16 06:52:47;;;;;;;94.30;53.50;;;;;;;;;;5022168;28;20159;-72
2022/03/16 06:55:13;;;;;;;69.30;36.17;;;;;;;;;;5032945;28;20045;-72
2022/03/16 06:57:39;;;;;;;63.03;33.75;;;;;;;;;;5010942;28;20042;-72
2022/03/16 07:00:08;;;;;;;67.05;35.00;;;;;;;;;;5008253;28;20432;-72
2022/03/16 07:02:56;;;;;;;69.55;35.00;;;;;;;;;;5006406;28;20037;-71
2022/03/16 07:05:27;;;;;;;67.90;34.90;;;;;;;;;;5014923;28;20087;-71
2022/03/16 07:07:56;;;;;;;58.97;33.58;;;;;;;;;;5021261;28;20046;-72
2022/03/16 07:10:22;;;;;;;58.60;34.05;;;;;;;;;;5004469;28;20404;-72
2022/03/16 07:12:47;;;;;;;66.63;33.65;;;;;;;;;;5024976;28;20124;-72
2022/03/16 07:15:13;;;;;;;63.47;34.05;;;;;;;;;;5020384;28;20033;-72
2022/03/16 07:17:39;;;;;;;58.85;33.08;;;;;;;;;;5013999;28;20378;-72
2022/03/16 07:20:06;;;;;;;58.55;32.92;;;;;;;;;;5001172;28;20080;-72
2022/03/16 07:22:36;;;;;;;54.63;32.63;;;;;;;;;;5020035;28;20084;-72
2022/03/16 07:25:09;;;;;;;58.55;32.55;;;;;;;;;;5025940;28;20097;-71
2022/03/16 07:27:41;;;;;;;53.38;31.70;;;;;;;;;;5004955;28;20049;-72
2022/03/16 07:30:09;;;;;;;54.63;33.25;;;;;;;;;;5017792;28;20496;-71
2022/03/16 07:32:41;;;;;;;57.88;32.50;;;;;;;;;;5003497;28;20124;-72
2022/03/16 07:35:12;;;;;;;51.85;32.15;;;;;;;;;;5016270;28;20381;-70
2022/03/16 07:37:38;;;;;;;51.28;31.50;;;;;;;;;;5011732;28;20052;-71
2022/03/16 07:40:05;;;;;;;53.25;31.77;;;;;;;;;;5023716;28;20104;-72
2022/03/16 07:42:31;;;;;;;54.85;31.42;;;;;;;;;;5017011;28;20041;-72
2022/03/16 07:44:57;;;;;;;51.60;31.73;;;;;;;;;;5001353;28;20107;-72
2022/03/16 07:47:25;;;;;;;52.45;31.60;;;;;;;;;;4996532;28;20080;-72
2022/03/16 07:49:56;;;;;;;55.30;32.55;;;;;;;;;;4991909;28;20401;-72
2022/03/16 07:52:25;;;;;;;56.97;32.00;;;;;;;;;;5010392;28;20042;-71
2022/03/16 07:54:50;;;;;;;54.38;32.58;;;;;;;;;;5015273;28;20041;-73
2022/03/16 07:57:16;;;;;;;53.65;32.00;;;;;;;;;;5008984;28;20038;-71
2022/03/16 07:59:42;;;;;;;48.33;31.40;;;;;;;;;;5025740;28;20034;-72
2022/03/16 08:02:08;;;;;;;53.38;30.63;;;;;;;;;;5011059;28;20041;-72
2022/03/16 08:04:34;;;;;;;49.97;32.15;;;;;;;;;;5011273;28;20405;-71
2022/03/16 08:06:59;;;;;;;52.38;31.17;;;;;;;;;;5008588;28;20499;-72
2022/03/16 08:09:25;;;;;;;49.03;30.13;;;;;;;;;;5015433;28;20041;-72
2022/03/16 08:11:51;;;;;;;58.50;34.40;;;;;;;;;;5005916;28;20047;-73
2022/03/16 08:14:16;;;;;;;62.35;33.97;;;;;;;;;;5015896;28;20036;-72
2022/03/16 08:16:42;;;;;;;53.08;31.63;;;;;;;;;;5010658;28;20099;-72
2022/03/16 08:19:07;;;;;;;52.40;31.58;;;;;;;;;;5014267;28;20030;-72
2022/03/16 08:21:33;;;;;;;58.10;34.25;;;;;;;;;;5008793;28;20072;-72
2022/03/16 08:23:59;;;;;;;66.40;36.17;;;;;;;;;;4991265;28;20481;-72
2022/03/16 08:26:24;;;;;;;48.00;30.48;;;;;;;;;;5016546;28;20121;-72
2022/03/16 08:28:51;;;;;;;53.55;32.22;;;;;;;;;;5021169;28;20038;-72
2022/03/16 08:31:17;;;;;;;53.42;30.95;;;;;;;;;;4995223;28;20128;-72
2022/03/16 08:33:43;;;;;;;48.72;30.17;;;;;;;;;;4995465;28;20100;-72
2022/03/16 08:36:09;;;;;;;49.28;31.48;;;;;;;;;;5001406;28;20485;-72
2022/03/16 08:38:38;;;;;;;49.65;30.77;;;;;;;;;;5016456;28;20076;-71
2022/03/16 08:41:04;;;;;;;;;;;;;;;;;;5013096;28;20378;-73
2022/03/16 08:43:30;;;;;;;45.88;29.88;;;;;;;;;;5025540;28;19971;-72
2022/03/16 08:45:55;;;;;;;43.83;30.75;;;;;;;;;;5020114;28;20403;-71
2022/03/16 08:48:21;;;;;;;52.72;33.47;;;;;;;;;;5019875;28;20030;-72
2022/03/16 08:50:47;;;;;;;43.63;29.70;;;;;;;;;;5001599;28;20045;-72
2022/03/16 08:53:12;;;;;;;44.25;29.92;;;;;;;;;;5018216;28;20044;-72
2022/03/16 08:55:38;;;;;;;45.60;30.67;;;;;;;;;;4994805;28;20038;-72
2022/03/16 08:58:03;;;;;;;46.83;30.02;;;;;;;;;;4994541;28;20095;-72
2022/03/16 09:00:29;;;;;;;45.60;31.55;;;;;;;;;;5015060;28;20038;-72
2022/03/16 09:02:56;;;;;;;39.75;29.40;;;;;;;;;;5011527;28;20080;-72
2022/03/16 09:05:22;;;;;;;45.95;29.92;;;;;;;;;;5011901;28;20038;-72
2022/03/16 09:07:48;;;;;;;39.92;29.42;;;;;;;;;;5012309;28;20152;-72
2022/03/16 09:10:14;;;;;;;41.85;29.58;;;;;;;;;;5013245;28;20384;-73
2022/03/16 09:12:40;;;;;;;43.30;30.25;;;;;;;;;;5021333;28;20029;-73
2022/03/16 09:15:06;;;;;;;42.50;29.60;;;;;;;;;;5009316;28;20033;-72
2022/03/16 09:17:33;;;;;;;51.40;31.90;;;;;;;;;;5012377;28;20040;-72
2022/03/16 09:20:00;;;;;;;41.45;28.58;;;;;;;;;;5020470;28;20034;-73
2022/03/16 09:22:26;;;;;;;43.72;29.25;;;;;;;;;;5010784;28;20037;-72
2022/03/16 09:24:51;;;;;;;51.25;34.15;;;;;;;;;;4993541;28;20072;-72
2022/03/16 09:27:17;;;;;;;35.58;27.05;;;;;;;;;;5018072;28;20384;-72
2022/03/16 09:29:46;;;;;;;33.80;25.98;;;;;;;;;;5006622;28;20237;-72
2022/03/16 09:32:13;;;;;;;35.75;27.08;;;;;;;;;;4993880;28;20547;-72
2022/03/16 09:34:40;;;;;;;37.72;27.25;;;;;;;;;;5011264;28;20419;-72
2022/03/16 09:37:08;;;;;;;36.63;28.65;;;;;;;;;;5018024;28;20079;-72
2022/03/16 09:39:35;;;;;;;41.45;28.88;;;;;;;;;;5005754;28;20038;-72
2022/03/16 09:42:03;;;;;;;32.60;25.85;;;;;;;;;;5016402;28;20034;-73
2022/03/16 09:44:30;;;;;;;32.97;26.83;;;;;;;;;;5008315;28;20034;-71
2022/03/16 09:46:57;;;;;;;33.55;25.40;;;;;;;;;;5015991;28;20087;-73
2022/03/16 09:49:23;;;;;;;34.85;26.88;;;;;;;;;;5015996;28;20069;-71
2022/03/16 09:51:53;;;;;;;35.58;26.58;;;;;;;;;;5010972;28;20045;-71
2022/03/16 09:54:20;;;;;;;32.78;26.85;;;;;;;;;;5011130;28;20117;-72
2022/03/16 09:56:47;;;;;;;30.00;24.80;;;;;;;;;;5006792;28;20104;-72
2022/03/16 09:59:14;;;;;;;31.80;25.77;;;;;;;;;;5016138;28;20401;-72
2022/03/16 10:01:42;;;;;;;31.70;25.92;;;;;;;;;;5029278;28;20103;-72
2022/03/16 10:04:08;;;;;;;35.00;26.27;;;;;;;;;;5015753;28;20319;-72
2022/03/16 10:06:36;;;;;;;32.42;26.00;;;;;;;;;;5010204;28;20049;-72
2022/03/16 10:15:10;;;;;;;32.30;25.33;;;;;;;;;;5025916;28;20484;-72
2022/03/16 10:17:45;;;;;;;34.63;28.80;;;;;;;;;;5025790;28;20773;-71
2022/03/16 10:20:32;;;;;;;33.75;26.55;;;;;;;;;;5009224;28;20041;-72
2022/03/16 10:23:17;;;;;;;29.25;25.75;;;;;;;;;;5019084;28;20117;-72
2022/03/16 10:25:53;;;;;;;31.85;24.55;;;;;;;;;;5024636;28;20116;-72
2022/03/16 10:28:26;;;;;;;33.40;24.40;;;;;;;;;;5023880;28;20030;-72
2022/03/16 10:30:57;;;;;;;28.08;24.17;;;;;;;;;;5001948;28;20044;-72
2022/03/16 10:33:33;;;;;;;29.50;26.33;;;;;;;;;;5007672;28;20045;-72
2022/03/16 10:36:08;;;;;;;33.08;25.58;;;;;;;;;;5009489;28;20113;-71
2022/03/16 10:38:54;;;;;;;30.23;26.33;;;;;;;;;;5011442;28;20041;-71
2022/03/16 10:46:55;;;;;;;31.02;27.65;;;;;;;;;;5009508;28;20025;-73
2022/03/16 10:49:22;;;;;;;32.38;27.67;;;;;;;;;;5014949;28;20041;-72
2022/03/16 10:52:11;;;;;;;29.33;24.80;;;;;;;;;;5009728;28;20076;-72
2022/03/16 10:54:38;;;;;;;32.85;28.73;;;;;;;;;;5010340;28;20148;-71
2022/03/16 10:57:06;;;;;;;27.35;24.45;;;;;;;;;;5009953;28;20069;-71
2022/03/16 10:59:33;;;;;;;29.27;24.92;;;;;;;;;;4996690;28;20044;-73
2022/03/16 11:02:12;;;;;;;28.13;25.13;;;;;;;;;;5008589;28;20034;-72
2022/03/16 11:04:39;;;;;;;;;;;;;;;;;;5009254;28;20420;-73
2022/03/16 11:07:06;;;;;;;28.35;24.90;;;;;;;;;;5001159;28;19913;-72
2022/03/16 11:09:34;;;;;;;31.17;25.52;;;;;;;;;;5012647;28;20046;-72
2022/03/16 11:14:51;;;;;;;28.05;24.95;;;;;;;;;;5012315;28;20062;-73
2022/03/16 11:17:18;;;;;;;38.20;31.40;;;;;;;;;;5005684;28;20104;-72
2022/03/16 11:19:45;;;;;;;30.08;26.95;;;;;;;;;;5010011;28;20037;-72
2022/03/16 11:22:27;;;;;;;27.95;24.88;;;;;;;;;;5009679;28;20128;-72
2022/03/16 11:25:10;;;;;;;28.27;23.13;;;;;;;;;;5016755;28;20049;-73
2022/03/16 11:27:52;;;;;;;29.02;25.63;;;;;;;;;;5013457;28;20049;-74
2022/03/16 11:30:33;;;;;;;34.60;27.02;;;;;;;;;;4991817;28;20083;-73
2022/03/16 11:33:05;;;;;;;39.03;28.33;;;;;;;;;;5009308;28;20113;-72
2022/03/16 11:35:33;;;;;;;27.80;24.42;;;;;;;;;;5014510;28;20033;-73
2022/03/16 11:38:09;;;;;;;29.75;25.33;;;;;;;;;;5010328;28;20041;-72
2022/03/16 11:40:38;;;;;;;26.70;23.88;;;;;;;;;;5017383;28;20108;-72
2022/03/16 11:43:08;;;;;;;48.90;36.90;;;;;;;;;;5019004;28;20469;-72
2022/03/16 11:45:43;;;;;;;28.35;25.33;;;;;;;;;;5017639;28;20050;-72
2022/03/16 11:48:34;;;;;;;27.98;24.70;;;;;;;;;;4991547;28;20073;-71
2022/03/16 11:56:26;;;;;;;28.45;25.35;;;;;;;;;;5015366;28;20056;-73
2022/03/16 11:59:00;;;;;;;27.52;24.73;;;;;;;;;;5002122;28;20030;-71
2022/03/16 12:01:33;;;;;;;29.15;25.48;;;;;;;;;;5011517;28;20038;-72
2022/03/16 12:04:22;;;;;;;25.65;23.15;;;;;;;;;;5008168;28;20032;-71
2022/03/16 12:07:04;;;;;;;27.65;24.55;;;;;;;;;;4998435;28;20049;-73
2022/03/16 12:09:38;;;;;;;28.02;24.90;;;;;;;;;;5030882;28;20040;-73
2022/03/16 12:15:19;;;;;;;26.90;24.10;;;;;;;;;;5019327;28;20030;-72
2022/03/16 12:17:51;;;;;;;27.08;23.85;;;;;;;;;;5011847;28;20038;-72
2022/03/16 12:20:23;;;;;;;26.42;23.77;;;;;;;;;;5008498;28;20424;-72
2022/03/16 12:22:53;;;;;;;38.63;30.83;;;;;;;;;;5008721;28;20117;-72
2022/03/16 12:25:40;;;;;;;28.92;25.83;;;;;;;;;;5013779;28;20041;-72
2022/03/16 12:31:00;;;;;;;27.73;24.20;;;;;;;;;;5003857;28;20038;-72
2022/03/16 12:33:32;;;;;;;27.38;24.42;;;;;;;;;;5020652;28;20041;-73
2022/03/16 12:36:15;;;;;;;25.33;22.80;;;;;;;;;;5008012;28;20038;-72
2022/03/16 12:38:43;;;;;;;25.73;23.10;;;;;;;;;;5008290;28;20045;-72
2022/03/16 12:43:56;;;;;;;26.95;24.15;;;;;;;;;;5025498;28;20033;-73
2022/03/16 12:46:50;;;;;;;25.85;23.05;;;;;;;;;;5012300;28;20096;-72
2022/03/16 12:49:18;;;;;;;26.10;23.30;;;;;;;;;;5010298;28;20052;-75
2022/03/16 12:51:48;;;;;;;29.92;25.95;;;;;;;;;;5000064;28;20048;-73
2022/03/16 12:54:26;;;;;;;25.75;23.15;;;;;;;;;;5021347;28;20032;-74
2022/03/16 12:57:01;;;;;;;26.35;23.33;;;;;;;;;;5020821;28;20049;-73
2022/03/16 12:59:30;;;;;;;25.98;22.95;;;;;;;;;;5013700;28;20030;-72
2022/03/16 13:01:57;;;;;;;;;;;;;;;;;;5011305;28;20030;-72
2022/03/16 13:04:24;;;;;;;29.17;22.98;;;;;;;;;;5014385;28;20355;-71
2022/03/16 13:06:55;;;;;;;28.67;21.58;;;;;;;;;;4991138;28;20100;-72
2022/03/16 13:09:21;;;;;;;27.00;23.30;;;;;;;;;;5009614;28;20030;-72
2022/03/16 13:11:47;;;;;;;24.42;21.83;;;;;;;;;;5012957;28;20421;-71
2022/03/16 13:14:17;;;;;;;26.38;23.38;;;;;;;;;;5022173;28;20033;-72
2022/03/16 13:16:45;;;;;;;25.08;21.95;;;;;;;;;;5011540;28;20092;-72
2022/03/16 13:19:24;;;;;;;23.20;20.88;;;;;;;;;;5013002;28;20088;-71
2022/03/16 13:22:02;;;;;;;24.80;22.38;;;;;;;;;;5018865;28;20037;-73
2022/03/16 13:24:41;;;;;;;26.65;23.95;;;;;;;;;;5011749;28;20050;-73
2022/03/16 13:27:14;;;;;;;25.58;22.30;;;;;;;;;;5025953;28;20500;-73
2022/03/16 13:29:42;;;;;;;26.42;22.27;;;;;;;;;;5016397;28;20043;-73
2022/03/16 13:32:09;;;;;;;25.52;22.45;;;;;;;;;;4999678;28;20038;-73
2022/03/16 13:34:39;;;;;;;26.80;24.00;;;;;;;;;;5012334;28;20029;-73
2022/03/16 13:37:30;;;;;;;28.80;22.88;;;;;;;;;;5013385;28;20481;-72
2022/03/16 13:40:07;;;;;;;35.35;25.98;;;;;;;;;;5019204;28;20408;-71
2022/03/16 13:42:35;;;;;;;27.30;23.38;;;;;;;;;;5018329;28;20495;-72
2022/03/16 13:45:23;;;;;;;27.05;24.20;;;;;;;;;;5018910;28;20469;-74
2022/03/16 13:48:13;;;;;;;30.27;23.83;;;;;;;;;;5010940;28;20635;-73
2022/03/16 13:51:06;;;;;;;24.70;22.15;;;;;;;;;;5026212;28;20037;-73
2022/03/16 13:53:47;;;;;;;24.77;22.08;;;;;;;;;;5017978;28;20428;-72
2022/03/16 13:56:17;;;;;;;24.73;22.25;;;;;;;;;;5013656;28;20045;-72
2022/03/16 13:58:43;;;;;;;26.40;23.88;;;;;;;;;;5013279;28;20033;-72
2022/03/16 14:01:18;;;;;;;24.83;22.25;;;;;;;;;;5012350;28;20038;-73
2022/03/16 14:03:44;;;;;;;25.67;21.83;;;;;;;;;;4997347;28;20038;-72
2022/03/16 14:06:15;;;;;;;25.20;22.67;;;;;;;;;;4992266;28;20558;-73
2022/03/16 14:08:41;;;;;;;26.35;23.55;;;;;;;;;;5008834;28;20041;-72
2022/03/16 14:11:07;;;;;;;26.17;23.48;;;;;;;;;;5012560;28;20042;-72
2022/03/16 14:13:40;;;;;;;24.58;21.98;;;;;;;;;;5017198;28;20073;-72
2022/03/16 14:16:12;;;;;;;26.70;22.75;;;;;;;;;;5011626;28;20584;-72
2022/03/16 14:18:38;;;;;;;26.20;23.50;;;;;;;;;;4976746;28;20050;-71
2022/03/16 14:21:04;;;;;;;25.98;23.17;;;;;;;;;;5009266;28;20030;-71
2022/03/16 14:23:30;;;;;;;26.05;23.45;;;;;;;;;;5025573;28;20064;-71
2022/03/16 14:25:58;;;;;;;25.98;23.02;;;;;;;;;;5010237;28;20124;-71
2022/03/16 14:28:24;;;;;;;26.10;23.35;;;;;;;;;;5008386;28;20493;-70
2022/03/16 14:30:52;;;;;;;27.23;24.10;;;;;;;;;;5007477;28;20068;-71
2022/03/16 14:33:23;;;;;;;25.83;23.15;;;;;;;;;;5012557;28;20717;-71
2022/03/16 14:35:51;;;;;;;25.10;22.40;;;;;;;;;;4994520;28;20034;-71
2022/03/16 14:38:17;;;;;;;26.25;23.50;;;;;;;;;;4990039;28;20046;-70
2022/03/16 14:40:54;;;;;;;25.90;23.40;;;;;;;;;;5015998;28;20191;-71
2022/03/16 14:43:28;;;;;;;26.05;23.40;;;;;;;;;;5006176;28;20127;-71
2022/03/16 14:45:54;;;;;;;25.92;23.33;;;;;;;;;;5011872;28;20328;-70
2022/03/16 14:48:20;;;;;;;30.20;22.20;;;;;;;;;;5006967;28;20492;-71
2022/03/16 14:50:48;;;;;;;26.08;23.23;;;;;;;;;;5012112;28;20077;-70